Local Weather Ingen bokad jour idag Saturday 24th of June
Flygplats METAR TAF
Airport METAR TAF
ESSL - Linköping241720Z AUTO 27015KT 230V300 9999 FEW053/// SCT070/// 19/08 Q0997= NO VALID TAF PUBLISHED
ESSP - Norrköping241720Z 27016KT CAVOK 18/05 Q0997= 241730Z 2418/2424 26016G28KT CAVOK BECMG 2419/2421 25010KT=
ESGJ - Jönköping241720Z 25014G24KT 9999 BKN048 17/08 Q1000= 241430Z 2415/2419 25012G22KT CAVOK=
ESKN - Skavsta241720Z 27017KT CAVOK 18/05 Q0996= RRA 241730Z 2418/2518 26013G25KT CAVOK=
ESSV - Visby241720Z 23016KT CAVOK 18/12 Q0998= 241430Z 2415/2418 23015G25KT 9999 SCT040=
ESGG - Göteborg241720Z 25016KT 9999 BKN031 14/08 Q1001= 241730Z 2418/2518 25016KT 9999 SCT035 PROB40 2506/2518 SHRA SCT020CB=
FLEET STATUS
Flygplan Tid till service Tid till flygstopp Flygtid Landningar
Aircraft Time to service Time to stop Total time Landings
SE-FCEN/AN/A4 802.9 h180 st.
SE-IUD35.3 h45.3 h10 864.7 h21 420 st.
SE-KIT-4.1 h0.9 h11 054.1 h20 890 st.
SE-KMH19.3 h29.3 h15 280.7 h57 730 st.
SE-LLMN/AN/A132.0 h224 st.
SE-MEB2.1 h7.1 h1 047.9 h3 252 st.
SE-SIMN/AN/A1 192.2 h85 st.
NOTAM
ESSL/LINKOPING/SAAB
CONTINUES ON NEXT PAGE ISSUED: 24 JUN 2017 16:55 UTC PAGE: 6(10) + TRIGGER NOTAM - PERM AIRAC AIP AMDT 4/17 WEF 22 JUN 2017. ADQ SURVEY PERFORMED. FROM: 22 JUN 2017 00:00 TO: 06 JUL 2017 23:59 ES/B1346/17 - AERODROME CONTROL TOWER (TWR) HOURS OF OPS/SERVICE MON-THU 0345-2100 FRI 0345-0445, 0845-1000, 1415-1530, 2000-2100 SAT-SUN 0345-0445, 1500-1615, 2000-2100 FROM: 19 JUN 2017 00:00 TO: 25 JUN 2017 23:59 ES/B1390/17 - MINIMUM ALTITUDE IN SHADED BLOCK BEFORE FAF SHALL READ 1240(1100). REF AIP AD 2 ESSL 5-4, DATED 23 JUN 2016. FROM: 24 APR 2017 11:16 TO: PERM ES/B1131/17
ESCF/LINKOPING/MALMEN
NIL
ESSP/NORRKOPING/KUNGSANGEN
- AERODROME CONTROL TOWER (TWR) HOURS OF OPS/SERVICE MON-THU 0500-2000 FRI 0330-0600 1130-2300 SAT 0530-0700 1130-2300 SUN 1200-1800 FROM: 19 JUN 2017 00:00 TO: 25 JUN 2017 23:59 ES/B1538/17 - FUEL HOURS OF OPS/SERVICE MON-THU 0500-1900 FRI 0330-0600 1130-2200 SAT 0530-0700 1130-2200 SUN 1200-1700 FROM: 19 JUN 2017 00:00 TO: 25 JUN 2017 23:59 ES/B1542/17 - MINIMUM RVR FOR DEPARTING TRAFFIC IS 400 M. FROM: 31 MAY 2017 00:00 TO: PERM ES/B1322/17 - NORRKOPING NEW DME CH32X FREQ 109,5 MHZ ON TEST SAME FRQ AS LOC 27 ILS CAT 1, DO NOT USE FROM: 10 MAY 2017 09:41 TO: 31 JUL 2017 12:00 EST ES/B1328/17